createdAt,value
2023-11-13T00:01:33.441Z,3.56
2023-11-13T00:04:00.123Z,3.63
2023-11-13T00:06:26.802Z,3.75
2023-11-13T00:08:53.938Z,3.69
2023-11-13T00:11:21.521Z,3.50
2023-11-13T00:13:48.529Z,3.50
2023-11-13T00:16:15.849Z,3.63
2023-11-13T00:18:43.313Z,3.50
2023-11-13T00:21:10.028Z,3.56
2023-11-13T00:23:38.205Z,3.31
2023-11-13T00:26:05.819Z,3.25
2023-11-13T00:28:32.475Z,3.31
2023-11-13T00:30:59.224Z,3.31
2023-11-13T00:33:25.855Z,3.44
2023-11-13T00:35:52.553Z,3.44
2023-11-13T00:38:19.174Z,3.56
2023-11-13T00:40:45.904Z,3.69
2023-11-13T00:43:13.826Z,3.56
2023-11-13T00:45:43.710Z,3.44
2023-11-13T00:48:10.383Z,3.50
2023-11-13T00:50:36.970Z,3.63
2023-11-13T00:53:03.624Z,3.69
2023-11-13T00:55:30.177Z,3.56
2023-11-13T00:57:56.848Z,3.31
2023-11-13T01:00:23.520Z,3.25
2023-11-13T01:02:50.198Z,3.25
2023-11-13T01:05:17.297Z,3.56
2023-11-13T01:07:43.971Z,3.63
2023-11-13T01:10:10.882Z,3.38
2023-11-13T01:12:37.981Z,3.31
2023-11-13T01:15:08.123Z,3.25
2023-11-13T01:17:35.259Z,3.44
2023-11-13T01:20:02.293Z,3.44
2023-11-13T01:22:31.347Z,3.44
2023-11-13T01:24:58.167Z,3.81
2023-11-13T01:27:24.901Z,3.81
2023-11-13T01:29:51.461Z,3.69
2023-11-13T01:32:18.020Z,3.69
2023-11-13T01:34:44.643Z,3.81
2023-11-13T01:37:11.318Z,3.88
2023-11-13T01:39:38.550Z,4.06
2023-11-13T01:42:06.310Z,4.06
2023-11-13T01:44:32.871Z,4.00
2023-11-13T01:47:00.408Z,4.06
2023-11-13T01:49:27.907Z,4.19
2023-11-13T01:51:55.734Z,4.31
2023-11-13T01:54:23.453Z,4.38
2023-11-13T01:56:51.670Z,4.44
2023-11-13T01:59:18.669Z,4.38
2023-11-13T02:01:45.299Z,4.44
2023-11-13T02:04:12.259Z,4.38
2023-11-13T02:06:38.857Z,4.44
2023-11-13T02:09:07.746Z,4.44
2023-11-13T02:11:34.477Z,4.44
2023-11-13T02:14:01.290Z,4.44
2023-11-13T02:16:28.034Z,4.38
2023-11-13T02:18:55.562Z,4.25
2023-11-13T02:21:22.273Z,4.19
2023-11-13T02:23:50.303Z,4.19
2023-11-13T02:26:18.845Z,4.25
2023-11-13T02:28:45.745Z,4.38
2023-11-13T02:31:12.711Z,4.44
2023-11-13T02:33:39.463Z,4.38
2023-11-13T02:36:06.455Z,4.31
2023-11-13T02:38:33.051Z,4.56
2023-11-13T02:41:00.276Z,4.63
2023-11-13T02:43:26.947Z,4.75
2023-11-13T02:45:53.812Z,4.69
2023-11-13T02:48:20.972Z,4.75
2023-11-13T02:50:48.708Z,4.81
2023-11-13T02:53:16.443Z,4.81
2023-11-13T02:55:43.063Z,4.75
2023-11-13T02:58:09.841Z,4.81
2023-11-13T03:00:36.488Z,4.81
2023-11-13T03:03:03.229Z,4.88
2023-11-13T03:05:30.488Z,4.88
2023-11-13T03:07:58.920Z,4.88
2023-11-13T03:10:26.425Z,4.88
2023-11-13T03:12:53.814Z,4.88
2023-11-13T03:15:20.671Z,4.88
2023-11-13T03:17:47.357Z,4.81
2023-11-13T03:20:14.094Z,4.81
2023-11-13T03:22:40.776Z,4.88
2023-11-13T03:25:07.718Z,4.81
2023-11-13T03:27:34.473Z,4.88
2023-11-13T03:30:01.088Z,4.94
2023-11-13T03:32:27.848Z,4.81
2023-11-13T03:34:54.546Z,4.88
2023-11-13T03:37:21.279Z,4.88
2023-11-13T03:39:48.812Z,4.88
2023-11-13T03:42:15.776Z,4.94
2023-11-13T03:44:43.217Z,5.13
2023-11-13T03:47:10.089Z,5.13
2023-11-13T03:49:36.759Z,5.19
2023-11-13T03:52:03.551Z,5.25
2023-11-13T03:54:30.190Z,5.31
2023-11-13T03:56:58.680Z,5.38
2023-11-13T03:59:25.261Z,5.38
2023-11-13T04:01:51.902Z,5.44
2023-11-13T04:04:18.648Z,5.50
2023-11-13T04:06:45.282Z,5.50
2023-11-13T04:09:11.906Z,5.50
2023-11-13T04:11:39.319Z,5.50
2023-11-13T04:14:05.921Z,5.56
2023-11-13T04:16:32.533Z,5.50
2023-11-13T04:18:59.197Z,5.56
2023-11-13T04:21:25.815Z,5.63
2023-11-13T04:23:52.412Z,5.63
2023-11-13T04:26:19.438Z,5.63
2023-11-13T04:28:46.108Z,5.63
2023-11-13T04:31:16.778Z,5.63
2023-11-13T04:33:43.504Z,5.63
2023-11-13T04:36:10.684Z,5.69
2023-11-13T04:38:39.000Z,5.69
2023-11-13T04:41:06.377Z,5.75
2023-11-13T04:43:33.602Z,5.75
2023-11-13T04:48:26.777Z,5.75
2023-11-13T04:50:54.746Z,5.88
2023-11-13T04:53:21.574Z,5.81
2023-11-13T04:55:48.159Z,5.81
2023-11-13T04:58:14.772Z,5.81
2023-11-13T05:00:41.384Z,5.81
2023-11-13T05:03:08.014Z,5.88
2023-11-13T05:05:37.916Z,5.94
2023-11-13T05:08:05.548Z,5.94
2023-11-13T05:10:33.603Z,6.00
2023-11-13T05:13:01.146Z,5.94
2023-11-13T05:15:27.813Z,5.94
2023-11-13T05:17:55.362Z,5.94
2023-11-13T05:20:22.044Z,6.00
2023-11-13T05:22:49.871Z,6.00
2023-11-13T05:25:16.620Z,5.94
2023-11-13T05:27:43.360Z,6.00
2023-11-13T05:30:10.306Z,6.00
2023-11-13T05:32:36.981Z,6.00
2023-11-13T05:35:04.098Z,6.00
2023-11-13T05:37:30.721Z,6.00
2023-11-13T05:39:57.364Z,6.00
2023-11-13T05:42:25.094Z,6.06
2023-11-13T05:44:51.860Z,6.06
2023-11-13T05:47:18.780Z,6.00
2023-11-13T05:49:45.634Z,6.13
2023-11-13T05:52:12.330Z,6.06
2023-11-13T05:54:38.996Z,6.13
2023-11-13T05:57:05.853Z,6.06
2023-11-13T05:59:32.533Z,6.13
2023-11-13T06:01:59.078Z,6.19
2023-11-13T06:04:26.007Z,6.13
2023-11-13T06:06:52.681Z,6.13
2023-11-13T06:09:19.257Z,6.13
2023-11-13T06:11:48.468Z,6.13
2023-11-13T06:14:15.237Z,6.19
2023-11-13T06:16:41.932Z,6.13
2023-11-13T06:19:08.964Z,6.19
2023-11-13T06:21:35.712Z,6.19
2023-11-13T06:24:02.336Z,6.25
2023-11-13T06:26:29.009Z,6.25
2023-11-13T06:28:55.618Z,6.25
2023-11-13T06:31:23.247Z,6.25
2023-11-13T06:33:51.748Z,6.31
2023-11-13T06:36:18.365Z,6.25
2023-11-13T06:38:46.496Z,6.38
2023-11-13T06:41:13.101Z,6.31
2023-11-13T06:43:39.740Z,6.38
2023-11-13T06:46:06.399Z,6.38
2023-11-13T06:48:33.637Z,6.38
2023-11-13T06:51:00.267Z,6.44
2023-11-13T06:53:27.015Z,6.44
2023-11-13T06:55:53.667Z,6.50
2023-11-13T06:58:23.438Z,6.50
2023-11-13T07:00:51.217Z,6.56
2023-11-13T07:03:19.332Z,6.56
2023-11-13T07:05:47.435Z,6.63
2023-11-13T07:08:14.580Z,6.69
2023-11-13T07:10:44.418Z,6.69
2023-11-13T07:13:12.953Z,6.69
2023-11-13T07:15:40.561Z,6.81
2023-11-13T07:18:08.853Z,6.81
2023-11-13T07:20:37.274Z,6.88
2023-11-13T07:23:04.387Z,6.81
2023-11-13T07:25:31.131Z,6.88
2023-11-13T07:27:58.360Z,6.88
2023-11-13T07:30:27.047Z,6.94
2023-11-13T07:32:54.163Z,6.94
2023-11-13T07:35:21.658Z,6.94
2023-11-13T07:37:48.683Z,6.94
2023-11-13T07:40:16.224Z,7.00
2023-11-13T07:42:44.555Z,7.06
2023-11-13T07:45:13.094Z,7.06
2023-11-13T07:47:41.111Z,7.06
2023-11-13T07:50:15.056Z,7.13
2023-11-13T07:52:43.448Z,7.13
2023-11-13T07:55:11.382Z,7.19
2023-11-13T07:57:43.355Z,7.25
2023-11-13T08:00:12.507Z,7.25
2023-11-13T08:02:43.518Z,7.38
2023-11-13T08:05:12.416Z,7.38
2023-11-13T08:07:43.930Z,7.38
2023-11-13T08:10:15.229Z,7.50
2023-11-13T08:12:47.171Z,7.56
2023-11-13T08:15:14.663Z,7.63
2023-11-13T08:17:45.276Z,7.63
2023-11-13T08:20:16.580Z,7.63
2023-11-13T08:22:47.122Z,7.69
2023-11-13T08:25:13.981Z,7.75
2023-11-13T08:27:44.327Z,7.75
2023-11-13T08:30:15.059Z,7.81
2023-11-13T08:32:42.866Z,7.88
2023-11-13T08:35:13.605Z,7.88
2023-11-13T08:37:43.222Z,7.94
2023-11-13T08:40:14.757Z,8.00
2023-11-13T08:42:43.814Z,8.06
2023-11-13T08:45:16.714Z,8.13
2023-11-13T08:47:48.473Z,8.25
2023-11-13T08:50:15.480Z,8.31
2023-11-13T08:52:43.357Z,8.38
2023-11-13T08:55:13.212Z,8.44
2023-11-13T08:57:43.536Z,8.50
2023-11-13T09:00:22.156Z,8.56
2023-11-13T09:02:50.310Z,8.63
2023-11-13T09:05:17.142Z,8.69
2023-11-13T09:07:44.741Z,8.75
2023-11-13T09:10:12.304Z,8.88
2023-11-13T09:12:40.800Z,8.94
2023-11-13T09:15:16.197Z,9.06
2023-11-13T09:17:45.110Z,9.13
2023-11-13T09:20:20.644Z,9.19
2023-11-13T09:22:48.209Z,9.25
2023-11-13T09:25:15.680Z,9.44
2023-11-13T09:27:47.330Z,9.38
2023-11-13T09:30:19.663Z,9.38
2023-11-13T09:32:47.395Z,9.50
2023-11-13T09:35:26.108Z,9.56
2023-11-13T09:37:54.116Z,9.56
2023-11-13T09:40:26.766Z,9.69
2023-11-13T09:43:08.137Z,9.69
2023-11-13T09:45:43.341Z,9.69
2023-11-13T09:48:11.885Z,9.75
2023-11-13T09:50:41.832Z,9.81
2023-11-13T09:53:09.310Z,9.88
2023-11-13T09:55:36.498Z,9.88
2023-11-13T09:58:03.218Z,9.88
2023-11-13T10:00:34.035Z,9.94
2023-11-13T10:03:01.488Z,9.94
2023-11-13T10:05:31.185Z,9.94
2023-11-13T10:07:58.915Z,10.00
2023-11-13T10:10:28.925Z,10.00
2023-11-13T10:12:57.648Z,10.00
2023-11-13T10:15:27.103Z,9.94
2023-11-13T10:17:59.442Z,10.00
2023-11-13T10:20:27.730Z,10.00
2023-11-13T10:22:57.479Z,10.00
2023-11-13T10:25:25.217Z,9.94
2023-11-13T10:28:01.232Z,9.94
2023-11-13T10:30:31.428Z,10.00
2023-11-13T10:32:59.607Z,10.00
2023-11-13T10:35:36.756Z,10.00
2023-11-13T10:38:09.162Z,10.00
2023-11-13T10:40:40.171Z,10.00
2023-11-13T10:43:08.728Z,10.00
2023-11-13T10:45:35.392Z,9.94
2023-11-13T10:48:02.082Z,9.94
2023-11-13T10:50:29.948Z,10.00
2023-11-13T10:52:59.183Z,10.00
2023-11-13T10:55:28.851Z,10.00
2023-11-13T10:57:56.411Z,10.00
2023-11-13T11:00:23.152Z,10.06
2023-11-13T11:02:54.678Z,10.06
2023-11-13T11:05:24.201Z,10.06
2023-11-13T11:07:53.930Z,10.13
2023-11-13T11:10:31.501Z,10.13
2023-11-13T11:13:15.120Z,10.13
2023-11-13T11:15:45.244Z,10.19
2023-11-13T11:18:41.637Z,10.19
2023-11-13T11:21:33.016Z,10.19
2023-11-13T11:24:13.002Z,10.19
2023-11-13T11:26:59.933Z,10.19
2023-11-13T11:29:33.052Z,10.19
2023-11-13T11:32:20.516Z,10.19
2023-11-13T11:35:03.590Z,10.19
2023-11-13T11:37:31.287Z,10.25
2023-11-13T11:40:05.266Z,10.25
2023-11-13T11:42:33.128Z,10.38
2023-11-13T11:45:01.196Z,10.44
2023-11-13T11:47:29.162Z,10.50
2023-11-13T11:49:58.326Z,10.50
2023-11-13T11:52:56.412Z,10.63
2023-11-13T11:55:24.038Z,10.69
2023-11-13T11:57:54.498Z,10.69
2023-11-13T12:00:23.059Z,10.81
2023-11-13T12:02:52.875Z,10.81
2023-11-13T12:05:20.912Z,10.88
2023-11-13T12:07:48.155Z,10.94
2023-11-13T12:10:19.593Z,10.94
2023-11-13T12:12:47.828Z,11.00
2023-11-13T12:15:14.553Z,11.06
2023-11-13T12:17:43.284Z,11.06
2023-11-13T12:20:20.013Z,11.13
2023-11-13T12:22:49.339Z,11.19
2023-11-13T12:25:16.851Z,11.31
2023-11-13T12:27:50.464Z,11.38
2023-11-13T12:30:17.885Z,11.50
2023-11-13T12:32:45.573Z,11.69
2023-11-13T12:35:12.707Z,11.81
2023-11-13T12:37:44.990Z,11.88
2023-11-13T12:40:14.392Z,12.00
2023-11-13T12:42:41.636Z,12.25
2023-11-13T12:45:16.806Z,12.25
2023-11-13T12:47:52.088Z,12.38
2023-11-13T12:50:21.271Z,12.50
2023-11-13T12:52:51.762Z,12.63
2023-11-13T12:55:19.747Z,12.69
2023-11-13T12:57:55.307Z,12.94
2023-11-13T13:00:23.042Z,13.06
2023-11-13T13:02:51.612Z,13.19
2023-11-13T13:05:26.763Z,13.31
2023-11-13T13:07:59.531Z,13.38
2023-11-13T13:10:27.051Z,13.63
2023-11-13T13:12:54.966Z,13.63
2023-11-13T13:15:22.358Z,13.81
2023-11-13T13:17:52.172Z,13.81
2023-11-13T13:20:24.760Z,13.94
2023-11-13T13:22:52.947Z,13.94
2023-11-13T13:25:21.677Z,14.00
2023-11-13T13:27:49.176Z,14.19
2023-11-13T13:30:19.908Z,14.06
2023-11-13T13:32:47.968Z,14.06
2023-11-13T13:35:14.635Z,14.13
2023-11-13T13:37:41.308Z,14.31
2023-11-13T13:40:10.833Z,14.25
2023-11-13T13:42:44.916Z,14.31
2023-11-13T13:45:15.971Z,14.31
2023-11-13T13:47:42.819Z,14.31
2023-11-13T13:50:11.420Z,14.44
2023-11-13T13:52:41.531Z,14.44
2023-11-13T13:55:11.406Z,14.44
2023-11-13T13:57:40.918Z,14.50
2023-11-13T14:00:18.152Z,14.69
2023-11-13T14:02:54.996Z,14.88
2023-11-13T14:05:22.102Z,14.75
2023-11-13T14:07:48.865Z,14.94
2023-11-13T14:10:15.723Z,14.88
2023-11-13T14:12:42.437Z,14.94
2023-11-13T14:15:12.522Z,14.81
2023-11-13T14:17:42.730Z,14.81
2023-11-13T14:20:16.086Z,14.94
2023-11-13T14:22:47.836Z,14.75
2023-11-13T14:25:19.026Z,14.88
2023-11-13T14:27:58.578Z,15.00
2023-11-13T14:30:32.618Z,14.81
2023-11-13T14:33:02.277Z,14.69
2023-11-13T14:35:29.011Z,14.75
2023-11-13T14:37:55.864Z,14.63
2023-11-13T14:40:24.968Z,14.88
2023-11-13T14:42:51.927Z,14.81
2023-11-13T14:45:20.552Z,14.81
2023-11-13T14:47:49.571Z,14.75
2023-11-13T14:50:21.626Z,14.63
2023-11-13T14:52:53.625Z,14.63
2023-11-13T14:55:25.787Z,14.63
2023-11-13T14:57:53.561Z,14.56
2023-11-13T15:00:22.205Z,14.44
2023-11-13T15:02:51.057Z,14.38
2023-11-13T15:05:18.155Z,14.38
2023-11-13T15:07:45.410Z,14.38
2023-11-13T15:10:14.142Z,14.44
2023-11-13T15:12:41.535Z,14.44
2023-11-13T15:15:09.831Z,14.38
2023-11-13T15:17:37.911Z,14.31
2023-11-13T15:20:11.931Z,14.38
2023-11-13T15:23:00.584Z,14.31
2023-11-13T15:25:27.433Z,14.25
2023-11-13T15:27:54.099Z,14.25
2023-11-13T15:30:21.556Z,14.13
2023-11-13T15:32:49.341Z,14.19
2023-11-13T15:35:16.613Z,14.19
2023-11-13T15:37:43.394Z,14.06
2023-11-13T15:40:15.974Z,14.00
2023-11-13T15:42:42.932Z,14.00
2023-11-13T15:45:12.324Z,14.00
2023-11-13T15:47:39.985Z,14.13
2023-11-13T15:50:21.410Z,13.88
2023-11-13T15:52:49.191Z,13.88
2023-11-13T15:55:16.658Z,13.88
2023-11-13T15:57:44.780Z,13.81
2023-11-13T16:00:12.976Z,13.63
2023-11-13T16:02:42.857Z,13.56
2023-11-13T16:05:10.714Z,13.50
2023-11-13T16:07:37.971Z,13.63
2023-11-13T16:10:05.329Z,13.81
2023-11-13T16:12:32.422Z,13.63
2023-11-13T16:15:00.222Z,13.50
2023-11-13T16:17:27.969Z,13.44
2023-11-13T16:19:55.079Z,13.31
2023-11-13T16:22:23.182Z,13.38
2023-11-13T16:24:50.013Z,13.31
2023-11-13T16:27:16.600Z,13.25
2023-11-13T16:29:43.156Z,13.19
2023-11-13T16:32:10.102Z,13.13
2023-11-13T16:34:39.279Z,13.19
2023-11-13T16:37:05.922Z,12.94
2023-11-13T16:39:33.461Z,13.06
2023-11-13T16:42:00.195Z,13.06
2023-11-13T16:44:26.853Z,13.00
2023-11-13T16:46:53.628Z,12.88
2023-11-13T16:49:20.304Z,13.00
2023-11-13T16:51:46.929Z,13.06
2023-11-13T16:54:13.580Z,12.94
2023-11-13T16:56:44.089Z,12.94
2023-11-13T16:59:10.825Z,12.94
2023-11-13T17:01:38.201Z,12.94
2023-11-13T17:04:05.285Z,13.00
2023-11-13T17:06:32.416Z,12.81
2023-11-13T17:08:59.437Z,12.94
2023-11-13T17:11:27.079Z,12.81
2023-11-13T17:13:53.877Z,12.69
2023-11-13T17:16:20.754Z,12.56
2023-11-13T17:18:47.389Z,12.56
2023-11-13T17:21:14.713Z,12.44
2023-11-13T17:23:41.668Z,12.44
2023-11-13T17:26:09.502Z,12.44
2023-11-13T17:28:36.216Z,12.31
2023-11-13T17:31:03.684Z,12.25
2023-11-13T17:33:30.597Z,12.31
2023-11-13T17:35:57.623Z,12.31
2023-11-13T17:38:27.097Z,12.38
2023-11-13T17:40:53.856Z,12.31
2023-11-13T17:43:20.801Z,12.31
2023-11-13T17:45:48.661Z,12.31
2023-11-13T17:48:15.520Z,12.25
2023-11-13T17:50:44.651Z,12.50
2023-11-13T17:53:13.938Z,12.50
2023-11-13T17:55:40.767Z,12.38
2023-11-13T17:58:07.359Z,12.44
2023-11-13T18:00:34.025Z,12.44
2023-11-13T18:03:00.849Z,12.56
2023-11-13T18:05:27.647Z,12.44
2023-11-13T18:07:55.104Z,12.44
2023-11-13T18:10:21.857Z,12.50
2023-11-13T18:12:48.745Z,12.38
2023-11-13T18:15:15.394Z,12.31
2023-11-13T18:17:42.861Z,12.38
2023-11-13T18:20:15.729Z,12.50
2023-11-13T18:22:44.659Z,12.38
2023-11-13T18:25:11.700Z,12.44
2023-11-13T18:27:39.161Z,12.50
2023-11-13T18:30:07.499Z,12.38
2023-11-13T18:32:34.708Z,12.44
2023-11-13T18:35:01.386Z,12.44
2023-11-13T18:37:30.574Z,12.44
2023-11-13T18:39:57.207Z,12.38
2023-11-13T18:42:23.951Z,12.38
2023-11-13T18:44:51.067Z,12.44
2023-11-13T18:47:18.789Z,12.38
2023-11-13T18:49:46.536Z,12.25
2023-11-13T18:52:13.631Z,12.44
2023-11-13T18:54:40.300Z,12.38
2023-11-13T18:57:07.009Z,12.25
2023-11-13T18:59:33.631Z,12.25
2023-11-13T19:02:00.240Z,12.31
2023-11-13T19:04:28.018Z,12.31
2023-11-13T19:06:54.722Z,12.50
2023-11-13T19:09:22.740Z,12.38
2023-11-13T19:11:50.550Z,12.44
2023-11-13T19:14:17.703Z,12.44
2023-11-13T19:16:44.776Z,12.50
2023-11-13T19:19:13.102Z,12.56
2023-11-13T19:21:39.714Z,12.50
2023-11-13T19:24:07.051Z,12.38
2023-11-13T19:26:33.879Z,12.50
2023-11-13T19:29:00.748Z,12.44
2023-11-13T19:31:27.637Z,12.50
2023-11-13T19:33:54.574Z,12.50
2023-11-13T19:36:23.561Z,12.50
2023-11-13T19:38:50.348Z,12.56
2023-11-13T19:41:16.953Z,12.56
2023-11-13T19:43:43.604Z,12.56
2023-11-13T19:46:11.251Z,12.50
2023-11-13T19:48:37.900Z,12.50
2023-11-13T19:51:05.622Z,12.50
2023-11-13T19:53:32.593Z,12.44
2023-11-13T19:56:00.643Z,12.38
2023-11-13T19:58:27.733Z,12.44
2023-11-13T20:00:54.398Z,12.56
2023-11-13T20:03:21.734Z,12.50
2023-11-13T20:05:48.543Z,12.50
2023-11-13T20:08:15.213Z,12.50
2023-11-13T20:10:42.411Z,12.44
2023-11-13T20:13:10.072Z,12.31
2023-11-13T20:15:36.736Z,12.44
2023-11-13T20:18:03.644Z,12.50
2023-11-13T20:20:30.572Z,12.44
2023-11-13T20:22:58.048Z,12.50
2023-11-13T20:25:24.927Z,12.50
2023-11-13T20:27:51.641Z,12.44
2023-11-13T20:30:18.425Z,12.44
2023-11-13T20:32:45.105Z,12.50
2023-11-13T20:35:11.965Z,12.56
2023-11-13T20:37:38.886Z,12.50
2023-11-13T20:40:07.244Z,12.44
2023-11-13T20:42:34.366Z,12.50
2023-11-13T20:45:01.464Z,12.50
2023-11-13T20:47:28.119Z,12.50
2023-11-13T20:49:56.130Z,12.50
2023-11-13T20:52:24.417Z,12.44
2023-11-13T20:54:51.053Z,12.50
2023-11-13T20:57:17.602Z,12.50
2023-11-13T20:59:44.262Z,12.56
2023-11-13T21:02:11.268Z,12.50
2023-11-13T21:04:39.140Z,12.56
2023-11-13T21:07:05.795Z,12.56
2023-11-13T21:09:32.513Z,12.56
2023-11-13T21:11:59.314Z,12.56
2023-11-13T21:14:25.880Z,12.44
2023-11-13T21:16:52.503Z,12.69
2023-11-13T21:19:19.268Z,12.63
2023-11-13T21:21:46.558Z,12.63
2023-11-13T21:24:13.244Z,12.50
2023-11-13T21:26:39.842Z,12.69
2023-11-13T21:29:08.386Z,12.63
2023-11-13T21:31:36.078Z,12.69
2023-11-13T21:34:02.761Z,12.75
2023-11-13T21:36:29.322Z,12.75
2023-11-13T21:38:55.966Z,12.75
2023-11-13T21:41:22.678Z,12.75
2023-11-13T21:43:49.838Z,12.69
2023-11-13T21:46:17.588Z,12.63
2023-11-13T21:48:44.259Z,12.69
2023-11-13T21:51:11.171Z,12.75
2023-11-13T21:53:38.236Z,12.75
2023-11-13T21:56:07.924Z,12.75
2023-11-13T21:58:34.690Z,12.75
2023-11-13T22:01:02.174Z,12.75
2023-11-13T22:03:29.401Z,12.69
2023-11-13T22:05:58.450Z,12.81
2023-11-13T22:08:25.365Z,12.75
2023-11-13T22:10:53.371Z,12.75
2023-11-13T22:13:20.335Z,12.75
2023-11-13T22:15:46.958Z,12.69
2023-11-13T22:18:13.734Z,12.75
2023-11-13T22:20:40.316Z,12.75
2023-11-13T22:23:09.221Z,12.75
2023-11-13T22:25:36.249Z,12.75
2023-11-13T22:28:03.202Z,12.75
2023-11-13T22:30:29.975Z,12.75
2023-11-13T22:32:57.885Z,12.75
2023-11-13T22:35:24.873Z,12.81
2023-11-13T22:37:52.594Z,12.75
2023-11-13T22:40:19.997Z,12.69
2023-11-13T22:42:46.960Z,12.63
2023-11-13T22:45:13.631Z,12.63
2023-11-13T22:47:40.300Z,12.69
2023-11-13T22:50:07.653Z,12.69
2023-11-13T22:52:34.351Z,12.75
2023-11-13T22:55:01.049Z,12.56
2023-11-13T22:57:27.643Z,12.56
2023-11-13T22:59:54.239Z,12.63
2023-11-13T23:02:23.112Z,12.63
2023-11-13T23:04:52.001Z,12.63
2023-11-13T23:07:18.971Z,12.63
2023-11-13T23:09:46.534Z,12.69
2023-11-13T23:12:13.600Z,12.63
2023-11-13T23:14:40.587Z,12.75
2023-11-13T23:17:07.422Z,12.81
2023-11-13T23:19:34.350Z,12.75
2023-11-13T23:22:04.532Z,12.75
2023-11-13T23:24:32.515Z,12.75
2023-11-13T23:27:01.212Z,12.81
2023-11-13T23:29:28.468Z,12.81
2023-11-13T23:31:55.492Z,12.81
2023-11-13T23:34:22.234Z,12.75
2023-11-13T23:36:49.707Z,12.81
2023-11-13T23:39:17.222Z,12.81
2023-11-13T23:41:43.821Z,12.88
2023-11-13T23:44:11.984Z,12.81
2023-11-13T23:46:39.823Z,12.75
2023-11-13T23:49:07.298Z,12.75
2023-11-13T23:51:34.021Z,12.81
2023-11-13T23:54:01.389Z,12.75
2023-11-13T23:56:28.640Z,12.81
2023-11-13T23:58:57.404Z,12.88
